Time;durP1;ratioP1;P1;durP2;ratioP2;P2;SDS_P1;SDS_P2;PMS_P1;PMS_P2;Temp;Humidity;BMP_temperature;BMP_pressure;BME280_temperature;BME280_humidity;BME280_pressure;Samples;Min_cycle;Max_cycle;Signal;HPM_P1;HPM_P2
2021/11/20 00:01:56;;;;;;;;;;;11.30;99.90;;;;;;5029273;28;19967;-64
2021/11/20 00:04:22;;;;;;;;;;;11.40;99.90;;;;;;5011409;28;20387;-66
2021/11/20 00:06:49;;;;;;;;;;;11.30;99.90;;;;;;5028944;28;19949;-65
2021/11/20 00:09:16;;;;;;;;;;;11.30;99.90;;;;;;5010771;28;20378;-65
2021/11/20 00:11:42;;;;;;;;;;;11.30;99.90;;;;;;5028506;28;20365;-64
2021/11/20 00:14:10;;;;;;;;;;;11.30;99.90;;;;;;5028891;28;19913;-65
2021/11/20 00:16:37;;;;;;;;;;;11.30;99.90;;;;;;5029310;28;19913;-64
2021/11/20 00:19:03;;;;;;;;;;;11.30;99.90;;;;;;5028815;28;20400;-62
2021/11/20 00:21:31;;;;;;;;;;;11.30;99.90;;;;;;5028881;28;20047;-65
2021/11/20 00:23:58;;;;;;;;;;;11.30;99.90;;;;;;5028597;28;19995;-64
2021/11/20 00:26:29;;;;;;;;;;;11.30;99.90;;;;;;5028025;28;19910;-63
2021/11/20 00:31:32;;;;;;;;;;;11.30;99.90;;;;;;5028661;28;21811;-65
2021/11/20 00:33:58;;;;;;;;;;;11.30;99.90;;;;;;5027418;28;20362;-66
2021/11/20 00:36:23;;;;;;;;;;;11.30;99.90;;;;;;5027672;28;19939;-64
2021/11/20 00:38:49;;;;;;;;;;;11.30;99.90;;;;;;5010785;28;19909;-63
2021/11/20 00:41:16;;;;;;;;;;;11.30;99.90;;;;;;5037220;22;19982;-63
2021/11/20 00:43:43;;;;;;;;;;;11.30;99.90;;;;;;5029059;28;20261;-64
2021/11/20 00:46:09;;;;;;;;;;;11.30;99.90;;;;;;5028684;28;19991;-63
2021/11/20 00:48:35;;;;;;;;;;;11.30;99.90;;;;;;5029066;28;19909;-63
2021/11/20 00:51:04;;;;;;;;;;;11.30;99.90;;;;;;5028353;28;19924;-63
2021/11/20 00:53:29;;;;;;;;;;;11.30;99.90;;;;;;5028395;28;19909;-63
2021/11/20 00:55:55;;;;;;;;;;;11.30;99.90;;;;;;5028351;28;20015;-64
2021/11/20 00:58:21;;;;;;;;;;;11.30;99.90;;;;;;5028167;28;19992;-64
2021/11/20 01:00:48;;;;;;;;;;;11.20;99.90;;;;;;5028509;28;19967;-64
2021/11/20 01:03:13;;;;;;;;;;;11.20;99.90;;;;;;5027836;28;19909;-64
2021/11/20 01:05:39;;;;;;;;;;;11.20;99.90;;;;;;5027990;28;20942;-64
2021/11/20 01:08:06;;;;;;;;;;;11.20;99.90;;;;;;5028335;28;19913;-64
2021/11/20 01:10:33;;;;;;;;;;;11.20;99.90;;;;;;4994631;28;19959;-64
2021/11/20 01:12:59;;;;;;;;;;;11.20;99.90;;;;;;5027496;28;19948;-64
2021/11/20 01:15:29;;;;;;;;;;;11.20;99.90;;;;;;5027682;28;19909;-64
2021/11/20 01:17:54;;;;;;;;;;;11.20;99.90;;;;;;5027582;28;19910;-64
2021/11/20 01:20:20;;;;;;;;;;;11.20;99.90;;;;;;5009853;28;19916;-64
2021/11/20 01:22:46;;;;;;;;;;;11.20;99.90;;;;;;5028869;28;19962;-64
2021/11/20 01:25:12;;;;;;;;;;;11.20;99.90;;;;;;5027104;28;20016;-64
2021/11/20 01:27:38;;;;;;;;;;;11.20;99.90;;;;;;5028102;28;19909;-64
2021/11/20 01:30:05;;;;;;;;;;;11.20;99.90;;;;;;5028126;28;19996;-64
2021/11/20 01:32:31;;;;;;;;;;;11.20;99.90;;;;;;5027988;28;19917;-64
2021/11/20 01:34:56;;;;;;;;;;;11.20;99.90;;;;;;5027919;28;20000;-64
2021/11/20 01:37:22;;;;;;;;;;;11.20;99.90;;;;;;5028015;28;19948;-64
2021/11/20 01:39:48;;;;;;;;;;;11.20;99.90;;;;;;5028012;28;19913;-64
2021/11/20 01:42:16;;;;;;;;;;;11.20;99.90;;;;;;5027297;28;19918;-64
2021/11/20 01:44:50;;;;;;;;;;;11.20;99.90;;;;;;5027949;28;19923;-64
2021/11/20 01:47:15;;;;;;;;;;;11.20;99.90;;;;;;5027126;28;19919;-64
2021/11/20 01:49:42;;;;;;;;;;;11.20;99.90;;;;;;5027942;28;20304;-64
2021/11/20 01:52:39;;;;;;;;;;;11.20;99.90;;;;;;5026946;28;20004;-64
2021/11/20 01:55:05;;;;;;;;;;;11.20;99.90;;;;;;4993861;28;19956;-64
2021/11/20 01:57:45;;;;;;;;;;;11.20;99.90;;;;;;5027140;28;19960;-64
2021/11/20 02:00:23;;;;;;;;;;;11.20;99.90;;;;;;5026870;28;19909;-64
2021/11/20 02:03:02;;;;;;;;;;;11.20;99.90;;;;;;5027138;28;19913;-64
2021/11/20 02:05:27;;;;;;;;;;;11.20;99.90;;;;;;5026710;28;20413;-64
2021/11/20 02:08:08;;;;;;;;;;;11.20;99.90;;;;;;5027047;28;20208;-64
2021/11/20 02:10:36;;;;;;;;;;;11.20;99.90;;;;;;5026577;28;19979;-64
2021/11/20 02:13:05;;;;;;;;;;;11.20;99.90;;;;;;5026670;28;19913;-64
2021/11/20 02:15:37;;;;;;;;;;;11.20;99.90;;;;;;5026584;28;20305;-64
2021/11/20 02:18:03;;;;;;;;;;;11.10;99.90;;;;;;5026898;28;19940;-64
2021/11/20 02:20:36;;;;;;;;;;;11.20;99.90;;;;;;5027036;28;20450;-64
2021/11/20 02:23:01;;;;;;;;;;;11.20;99.90;;;;;;5027016;28;20016;-64
2021/11/20 02:25:26;;;;;;;;;;;11.20;99.90;;;;;;5027642;28;20336;-64
2021/11/20 02:27:53;;;;;;;;;;;11.20;99.90;;;;;;5027254;28;19916;-64
2021/11/20 02:30:24;;;;;;;;;;;11.10;99.90;;;;;;5027290;28;19909;-64
2021/11/20 02:32:52;;;;;;;;;;;11.20;99.90;;;;;;5026696;28;19955;-64
2021/11/20 02:35:22;;;;;;;;;;;11.20;99.90;;;;;;5028225;28;20357;-64
2021/11/20 02:37:47;;;;;;;;;;;11.10;99.90;;;;;;5030921;28;19913;-64
2021/11/20 02:40:13;;;;;;;;;;;11.10;99.90;;;;;;5030768;28;19920;-64
2021/11/20 02:42:39;;;;;;;;;;;11.10;99.90;;;;;;5030862;28;19909;-64
2021/11/20 02:45:24;;;;;;;;;;;11.10;99.90;;;;;;5031076;28;19913;-64
2021/11/20 02:47:50;;;;;;;;;;;11.10;99.90;;;;;;5030951;28;19985;-64
2021/11/20 02:50:23;;;;;;;;;;;11.10;99.90;;;;;;5030537;28;19913;-64
2021/11/20 02:52:48;;;;;;;;;;;11.10;99.90;;;;;;5030485;28;20369;-64
2021/11/20 02:55:14;;;;;;;;;;;11.10;99.90;;;;;;5030532;28;19909;-64
2021/11/20 02:57:40;;;;;;;;;;;11.10;99.90;;;;;;5030395;28;19917;-64
2021/11/20 03:00:08;;;;;;;;;;;11.10;99.90;;;;;;5030711;28;19988;-64
2021/11/20 03:02:33;;;;;;;;;;;11.10;99.90;;;;;;5030036;28;19909;-64
2021/11/20 03:04:59;;;;;;;;;;;11.10;99.90;;;;;;5030373;28;19963;-64
2021/11/20 03:07:24;;;;;;;;;;;11.10;99.90;;;;;;5030082;28;19910;-64
2021/11/20 03:09:50;;;;;;;;;;;11.10;99.90;;;;;;5030366;28;19944;-64
2021/11/20 03:12:15;;;;;;;;;;;11.10;99.90;;;;;;5029827;28;19913;-64
2021/11/20 03:14:41;;;;;;;;;;;11.10;99.90;;;;;;5030936;28;19913;-64
2021/11/20 03:17:08;;;;;;;;;;;11.10;99.90;;;;;;5030552;28;19913;-64
2021/11/20 03:19:36;;;;;;;;;;;11.10;99.90;;;;;;5030778;28;19915;-64
2021/11/20 03:22:09;;;;;;;;;;;11.10;99.90;;;;;;5029906;28;19909;-64
2021/11/20 03:24:35;;;;;;;;;;;11.10;99.90;;;;;;5030373;28;19988;-64
2021/11/20 03:27:01;;;;;;;;;;;11.10;99.90;;;;;;5030330;28;19909;-64
2021/11/20 03:29:26;;;;;;;;;;;11.10;99.90;;;;;;5030067;28;20047;-64
2021/11/20 03:31:53;;;;;;;;;;;11.10;99.90;;;;;;5030159;28;19913;-64
2021/11/20 03:34:20;;;;;;;;;;;11.10;99.90;;;;;;5030094;28;19916;-64
2021/11/20 03:36:45;;;;;;;;;;;11.10;99.90;;;;;;5030027;28;19913;-64
2021/11/20 03:39:11;;;;;;;;;;;11.10;99.90;;;;;;5029803;28;20389;-64
2021/11/20 03:41:37;;;;;;;;;;;11.10;99.90;;;;;;5029878;28;20317;-64
2021/11/20 03:44:03;;;;;;;;;;;11.10;99.90;;;;;;5029377;28;20012;-64
2021/11/20 03:46:28;;;;;;;;;;;11.10;99.90;;;;;;5028863;28;20429;-64
2021/11/20 03:48:53;;;;;;;;;;;11.10;99.90;;;;;;5029681;28;20003;-64
2021/11/20 03:51:19;;;;;;;;;;;11.10;99.90;;;;;;5029127;28;19917;-64
2021/11/20 03:53:45;;;;;;;;;;;11.10;99.90;;;;;;5011774;28;19959;-64
2021/11/20 03:56:11;;;;;;;;;;;11.10;99.90;;;;;;5028963;28;19917;-64
2021/11/20 03:58:37;;;;;;;;;;;11.10;99.90;;;;;;5029466;28;19917;-64
2021/11/20 04:01:08;;;;;;;;;;;11.10;99.90;;;;;;5029244;28;19910;-64
2021/11/20 04:03:35;;;;;;;;;;;11.10;99.90;;;;;;5029053;28;20001;-64
2021/11/20 04:06:00;;;;;;;;;;;11.10;99.90;;;;;;5028955;28;19915;-64
2021/11/20 04:08:26;;;;;;;;;;;11.10;99.90;;;;;;5029943;28;20386;-64
2021/11/20 04:10:53;;;;;;;;;;;11.10;99.90;;;;;;5029160;28;19920;-64
2021/11/20 04:13:18;;;;;;;;;;;11.10;99.90;;;;;;5029503;28;19909;-64
2021/11/20 04:15:45;;;;;;;;;;;11.10;99.90;;;;;;5029895;28;19935;-64
2021/11/20 04:18:11;;;;;;;;;;;11.10;99.90;;;;;;5029312;28;19913;-64
2021/11/20 04:20:37;;;;;;;;;;;11.10;99.90;;;;;;5029526;28;19956;-64
2021/11/20 04:23:04;;;;;;;;;;;11.10;99.90;;;;;;5029433;28;19909;-64
2021/11/20 04:25:29;;;;;;;;;;;11.10;99.90;;;;;;5029159;28;20363;-64
2021/11/20 04:27:55;;;;;;;;;;;11.10;99.90;;;;;;5029168;28;19910;-64
2021/11/20 04:30:23;;;;;;;;;;;11.10;99.90;;;;;;5011028;28;19913;-64
2021/11/20 04:32:50;;;;;;;;;;;11.10;99.90;;;;;;5028852;28;19913;-64
2021/11/20 04:35:17;;;;;;;;;;;11.10;99.90;;;;;;5028447;28;20309;-64
2021/11/20 04:37:43;;;;;;;;;;;11.10;99.90;;;;;;5028983;28;19913;-64
2021/11/20 04:40:08;;;;;;;;;;;11.10;99.90;;;;;;5028105;28;19920;-64
2021/11/20 04:42:34;;;;;;;;;;;11.10;99.90;;;;;;5028724;28;19913;-64
2021/11/20 04:45:00;;;;;;;;;;;11.10;99.90;;;;;;5028432;28;20191;-64
2021/11/20 04:47:25;;;;;;;;;;;11.10;99.90;;;;;;5028334;28;21201;-64
2021/11/20 04:49:50;;;;;;;;;;;11.10;99.90;;;;;;5028573;28;19960;-64
2021/11/20 04:52:16;;;;;;;;;;;11.10;99.90;;;;;;5028218;28;19917;-64
2021/11/20 04:54:42;;;;;;;;;;;11.10;99.90;;;;;;5028259;28;20409;-64
2021/11/20 04:57:07;;;;;;;;;;;11.10;99.90;;;;;;5027843;28;19987;-64
2021/11/20 04:59:33;;;;;;;;;;;11.10;99.90;;;;;;5028152;28;19909;-64
2021/11/20 05:01:59;;;;;;;;;;;11.10;99.90;;;;;;5028588;28;19983;-64
2021/11/20 05:04:25;;;;;;;;;;;11.10;99.90;;;;;;5028419;28;19996;-64
2021/11/20 05:06:50;;;;;;;;;;;11.10;99.90;;;;;;5028768;28;20075;-64
2021/11/20 05:09:17;;;;;;;;;;;11.10;99.90;;;;;;5028644;28;20420;-64
2021/11/20 05:11:44;;;;;;;;;;;11.10;99.90;;;;;;5028426;28;19920;-64
2021/11/20 05:14:09;;;;;;;;;;;11.10;99.90;;;;;;5028175;28;20000;-64
2021/11/20 05:16:38;;;;;;;;;;;11.10;99.90;;;;;;5028572;28;20351;-64
2021/11/20 05:19:04;;;;;;;;;;;11.10;99.90;;;;;;5028184;28;19917;-64
2021/11/20 05:21:29;;;;;;;;;;;11.10;99.90;;;;;;5027903;28;19964;-64
2021/11/20 05:23:54;;;;;;;;;;;11.10;99.90;;;;;;5027958;28;20397;-64
2021/11/20 05:26:20;;;;;;;;;;;11.10;99.90;;;;;;5028111;28;20384;-64
2021/11/20 05:28:53;;;;;;;;;;;11.10;99.90;;;;;;5027876;28;20333;-64
2021/11/20 05:31:19;;;;;;;;;;;11.10;99.90;;;;;;5027697;28;19917;-64
2021/11/20 05:33:46;;;;;;;;;;;11.10;99.90;;;;;;5027636;28;19913;-64
2021/11/20 05:36:12;;;;;;;;;;;11.10;99.90;;;;;;5026701;28;19924;-64
2021/11/20 05:38:38;;;;;;;;;;;11.10;99.90;;;;;;5028003;28;20283;-64
2021/11/20 05:41:04;;;;;;;;;;;11.10;99.90;;;;;;5027017;28;20345;-64
2021/11/20 05:43:30;;;;;;;;;;;11.10;99.90;;;;;;5028271;28;19936;-64
2021/11/20 05:45:58;;;;;;;;;;;11.10;99.90;;;;;;5010146;28;19913;-64
2021/11/20 05:48:23;;;;;;;;;;;11.10;99.90;;;;;;5027775;28;20321;-64
2021/11/20 05:50:50;;;;;;;;;;;11.10;99.90;;;;;;5027024;28;19999;-64
2021/11/20 05:53:17;;;;;;;;;;;11.10;99.90;;;;;;5027674;28;20321;-64
2021/11/20 05:55:43;;;;;;;;;;;11.10;99.90;;;;;;5028037;28;19909;-64
2021/11/20 05:58:09;;;;;;;;;;;11.00;99.90;;;;;;5027709;28;20281;-64
2021/11/20 06:00:36;;;;;;;;;;;11.00;99.90;;;;;;5027710;28;19917;-64
2021/11/20 06:03:02;;;;;;;;;;;11.00;99.90;;;;;;5027354;28;19913;-64
2021/11/20 06:05:28;;;;;;;;;;;11.10;99.90;;;;;;5027606;28;19932;-64
2021/11/20 06:07:54;;;;;;;;;;;11.00;99.90;;;;;;5027725;28;20330;-64
2021/11/20 06:10:20;;;;;;;;;;;11.10;99.90;;;;;;5026766;28;19963;-64
2021/11/20 06:12:45;;;;;;;;;;;11.00;99.90;;;;;;5027477;28;19919;-64
2021/11/20 06:15:11;;;;;;;;;;;11.00;99.90;;;;;;5027127;28;19910;-64
2021/11/20 06:17:37;;;;;;;;;;;11.00;99.90;;;;;;5027585;28;20185;-64
2021/11/20 06:20:03;;;;;;;;;;;11.00;99.90;;;;;;5026941;28;20322;-64
2021/11/20 06:22:29;;;;;;;;;;;11.00;99.90;;;;;;5026661;28;20058;-64
2021/11/20 06:24:54;;;;;;;;;;;11.00;99.90;;;;;;5027137;28;19995;-64
2021/11/20 06:27:20;;;;;;;;;;;11.00;99.90;;;;;;5026899;28;19909;-64
2021/11/20 06:29:46;;;;;;;;;;;11.00;99.90;;;;;;5027340;28;20280;-64
2021/11/20 06:32:11;;;;;;;;;;;11.00;99.90;;;;;;5026421;28;20000;-64
2021/11/20 06:34:36;;;;;;;;;;;11.00;99.90;;;;;;5027005;28;19917;-64
2021/11/20 06:37:02;;;;;;;;;;;11.00;99.90;;;;;;5026989;28;19909;-64
2021/11/20 06:39:28;;;;;;;;;;;11.00;99.90;;;;;;5026384;28;19910;-64
2021/11/20 06:41:53;;;;;;;;;;;11.00;99.90;;;;;;5026372;28;20322;-64
2021/11/20 06:44:19;;;;;;;;;;;11.00;99.90;;;;;;5025999;28;19932;-64
2021/11/20 06:46:44;;;;;;;;;;;11.10;99.90;;;;;;5027576;28;19913;-64
2021/11/20 06:49:10;;;;;;;;;;;11.00;99.90;;;;;;5027356;28;19909;-64
2021/11/20 06:51:36;;;;;;;;;;;11.00;99.90;;;;;;5027143;28;19918;-64
2021/11/20 06:54:01;;;;;;;;;;;11.00;99.90;;;;;;5027316;28;19913;-64
2021/11/20 06:56:43;;;;;;;;;;;11.00;99.90;;;;;;5027403;28;19919;-65
2021/11/20 07:00:25;;;;;;;;;;;11.00;99.90;;;;;;5026845;28;19913;-64
2021/11/20 07:02:04;;;;;;;;;;;11.10;99.90;;;;;;5026511;28;20418;-64
2021/11/20 07:04:30;;;;;;;;;;;11.10;99.90;;;;;;5027174;28;20012;-62
2021/11/20 07:07:01;;;;;;;;;;;11.10;99.90;;;;;;5027060;28;19916;-65
2021/11/20 07:09:27;;;;;;;;;;;11.10;99.90;;;;;;5008831;28;19917;-62
2021/11/20 07:11:52;;;;;;;;;;;11.10;99.90;;;;;;5026741;28;19913;-64
2021/11/20 07:14:18;;;;;;;;;;;11.10;99.90;;;;;;5026377;28;19913;-66
2021/11/20 07:16:44;;;;;;;;;;;11.10;99.90;;;;;;5026886;28;19909;-64
2021/11/20 07:19:10;;;;;;;;;;;11.10;99.90;;;;;;5026296;28;19935;-65
2021/11/20 07:21:36;;;;;;;;;;;11.10;99.90;;;;;;5027036;28;19949;-66
2021/11/20 07:24:05;;;;;;;;;;;11.10;99.90;;;;;;5030602;28;20401;-64
2021/11/20 07:26:30;;;;;;;;;;;11.10;99.90;;;;;;5029973;28;19955;-65
2021/11/20 07:28:56;;;;;;;;;;;11.10;99.90;;;;;;5030157;28;19913;-65
2021/11/20 07:31:22;;;;;;;;;;;11.10;99.90;;;;;;5029166;28;19913;-64
2021/11/20 07:33:47;;;;;;;;;;;11.10;99.90;;;;;;5030296;28;20000;-62
2021/11/20 07:36:13;;;;;;;;;;;11.10;99.90;;;;;;5029134;28;20011;-65
2021/11/20 07:38:41;;;;;;;;;;;11.10;99.90;;;;;;5029972;28;19909;-64
2021/11/20 07:41:07;;;;;;;;;;;11.10;99.90;;;;;;5029449;28;19960;-65
2021/11/20 07:43:33;;;;;;;;;;;11.10;99.90;;;;;;5030687;28;19953;-66
2021/11/20 07:45:59;;;;;;;;;;;11.10;99.90;;;;;;5030435;28;19955;-65
2021/11/20 07:48:25;;;;;;;;;;;11.10;99.90;;;;;;5030375;28;19963;-65
2021/11/20 07:50:52;;;;;;;;;;;11.10;99.90;;;;;;5029883;28;20354;-64
2021/11/20 07:53:18;;;;;;;;;;;11.20;99.90;;;;;;5030029;28;20415;-64
2021/11/20 07:55:44;;;;;;;;;;;11.20;99.90;;;;;;5030071;28;19998;-62
2021/11/20 07:58:10;;;;;;;;;;;11.20;99.90;;;;;;5029974;28;19913;-63
2021/11/20 08:00:36;;;;;;;;;;;11.20;99.90;;;;;;5029871;28;19920;-66
2021/11/20 08:03:02;;;;;;;;;;;11.20;99.90;;;;;;5030228;28;19909;-63
2021/11/20 08:05:28;;;;;;;;;;;11.20;99.90;;;;;;5029805;28;19917;-64
2021/11/20 08:07:54;;;;;;;;;;;11.20;99.90;;;;;;5029419;28;20357;-65
2021/11/20 08:10:20;;;;;;;;;;;11.20;99.90;;;;;;5029579;28;20269;-65
2021/11/20 08:12:46;;;;;;;;;;;11.20;99.90;;;;;;5029541;28;19917;-64
2021/11/20 08:15:11;;;;;;;;;;;11.20;99.90;;;;;;5029482;28;19915;-65
2021/11/20 08:17:37;;;;;;;;;;;11.20;99.90;;;;;;5029872;28;19928;-66
2021/11/20 08:20:04;;;;;;;;;;;11.20;99.90;;;;;;5029484;28;19940;-62
2021/11/20 08:22:30;;;;;;;;;;;11.30;99.90;;;;;;5011081;28;20036;-65
2021/11/20 08:24:55;;;;;;;;;;;11.30;99.90;;;;;;5028948;28;20389;-64
2021/11/20 08:27:20;;;;;;;;;;;11.30;99.90;;;;;;5028820;28;19912;-65
2021/11/20 08:29:46;;;;;;;;;;;11.40;99.90;;;;;;5029008;28;19913;-66
2021/11/20 08:32:11;;;;;;;;;;;11.40;99.90;;;;;;5028422;28;19917;-65
2021/11/20 08:34:40;;;;;;;;;;;11.30;99.90;;;;;;5029335;28;19913;-67
2021/11/20 08:37:06;;;;;;;;;;;11.40;99.90;;;;;;5029662;28;20004;-63
2021/11/20 08:39:31;;;;;;;;;;;11.40;99.90;;;;;;5029388;28;20003;-65
2021/11/20 08:41:57;;;;;;;;;;;11.30;99.90;;;;;;5029115;28;19921;-64
2021/11/20 08:44:23;;;;;;;;;;;11.40;99.90;;;;;;5029076;28;19909;-65
2021/11/20 08:46:49;;;;;;;;;;;11.30;99.90;;;;;;5029405;28;19909;-66
2021/11/20 08:49:14;;;;;;;;;;;11.30;99.90;;;;;;5028737;28;19913;-66
2021/11/20 08:51:40;;;;;;;;;;;11.30;99.90;;;;;;5028876;28;19920;-63
2021/11/20 08:54:06;;;;;;;;;;;11.40;99.90;;;;;;5028603;28;19940;-64
2021/11/20 08:56:36;;;;;;;;;;;11.30;99.90;;;;;;5029075;28;20370;-65
2021/11/20 08:59:02;;;;;;;;;;;11.30;99.90;;;;;;5028446;28;19916;-66
2021/11/20 09:01:35;;;;;;;;;;;11.30;99.90;;;;;;5027040;28;19917;-65
2021/11/20 09:04:04;;;;;;;;;;;11.30;99.90;;;;;;5027188;28;19999;-66
2021/11/20 09:06:50;;;;;;;;;;;11.30;99.90;;;;;;5027567;28;19963;-66
2021/11/20 09:09:36;;;;;;;;;;;11.30;99.90;;;;;;5027015;28;19913;-64
2021/11/20 09:12:04;;;;;;;;;;;11.30;99.90;;;;;;5027736;28;20451;-65
2021/11/20 09:14:42;;;;;;;;;;;11.30;99.90;;;;;;5009418;28;19917;-65
2021/11/20 09:17:08;;;;;;;;;;;11.20;99.90;;;;;;5027413;28;19956;-67
2021/11/20 09:19:35;;;;;;;;;;;11.20;99.90;;;;;;5027703;28;19910;-66
2021/11/20 09:22:01;;;;;;;;;;;11.20;99.90;;;;;;5027214;28;19909;-63
2021/11/20 09:24:28;;;;;;;;;;;11.20;99.90;;;;;;5009182;28;20043;-64
2021/11/20 09:26:53;;;;;;;;;;;11.20;99.90;;;;;;5027417;28;19959;-66
2021/11/20 09:29:21;;;;;;;;;;;11.30;99.90;;;;;;5026979;28;19909;-66
2021/11/20 09:31:47;;;;;;;;;;;11.30;99.90;;;;;;5027087;28;19985;-63
2021/11/20 09:34:16;;;;;;;;;;;11.30;99.90;;;;;;5027412;28;20359;-63
2021/11/20 09:36:41;;;;;;;;;;;11.30;99.90;;;;;;5027316;28;20374;-66
2021/11/20 09:39:08;;;;;;;;;;;11.30;99.90;;;;;;5027507;28;19913;-65
2021/11/20 09:41:43;;;;;;;;;;;11.30;99.90;;;;;;5027061;28;19963;-63
2021/11/20 09:44:09;;;;;;;;;;;11.40;99.90;;;;;;5026536;28;20464;-66
2021/11/20 09:46:37;;;;;;;;;;;11.40;99.90;;;;;;5026819;28;19909;-66
2021/11/20 09:49:10;;;;;;;;;;;11.50;99.90;;;;;;5026242;28;19998;-63
2021/11/20 09:51:38;;;;;;;;;;;11.40;99.90;;;;;;5027104;28;20000;-66
2021/11/20 09:54:06;;;;;;;;;;;11.50;99.90;;;;;;5026784;28;19924;-63
2021/11/20 09:56:37;;;;;;;;;;;11.50;99.90;;;;;;5027065;28;19967;-64
2021/11/20 09:59:04;;;;;;;;;;;11.60;99.90;;;;;;5026596;28;19909;-66
2021/11/20 10:01:32;;;;;;;;;;;11.60;99.90;;;;;;5026918;28;19909;-65
2021/11/20 10:04:01;;;;;;;;;;;11.60;99.90;;;;;;5026471;28;19917;-66
2021/11/20 10:06:29;;;;;;;;;;;11.60;99.90;;;;;;5027140;28;19952;-66
2021/11/20 10:09:10;;;;;;;;;;;11.70;99.90;;;;;;5026734;28;19913;-66
2021/11/20 10:11:54;;;;;;;;;;;11.70;99.90;;;;;;5026771;28;19943;-65
2021/11/20 10:14:21;;;;;;;;;;;11.70;99.90;;;;;;5026450;28;19928;-66
2021/11/20 10:16:51;;;;;;;;;;;11.70;99.90;;;;;;5026704;28;19959;-65
2021/11/20 10:19:22;;;;;;;;;;;11.80;99.90;;;;;;5026483;28;19983;-67
2021/11/20 10:21:57;;;;;;;;;;;11.80;99.90;;;;;;5026616;28;19913;-62
2021/11/20 10:24:28;;;;;;;;;;;11.80;99.90;;;;;;5008948;28;20505;-65
2021/11/20 10:27:19;;;;;;;;;;;11.90;99.90;;;;;;5026689;28;19964;-64
2021/11/20 10:30:03;;;;;;;;;;;11.90;99.90;;;;;;5026827;28;19913;-64
2021/11/20 10:32:36;;;;;;;;;;;11.90;99.90;;;;;;5026107;28;19913;-65
2021/11/20 10:35:17;;;;;;;;;;;11.90;99.90;;;;;;5026017;28;20371;-66
2021/11/20 10:37:54;;;;;;;;;;;12.00;99.90;;;;;;5026637;28;19909;-64
2021/11/20 10:40:22;;;;;;;;;;;12.00;99.90;;;;;;5026663;28;19913;-66
2021/11/20 10:43:01;;;;;;;;;;;12.00;99.90;;;;;;5026633;28;20000;-66
2021/11/20 10:45:36;;;;;;;;;;;12.00;99.90;;;;;;5026168;28;19913;-66
2021/11/20 10:48:19;;;;;;;;;;;12.10;99.90;;;;;;5026563;28;19944;-64
2021/11/20 10:50:47;;;;;;;;;;;12.10;99.90;;;;;;5008511;28;20342;-63
2021/11/20 10:53:19;;;;;;;;;;;12.10;99.90;;;;;;5026711;28;20125;-66
2021/11/20 10:56:02;;;;;;;;;;;12.10;99.90;;;;;;5026192;28;20382;-64
2021/11/20 10:58:46;;;;;;;;;;;12.10;99.90;;;;;;5029826;28;19924;-66
2021/11/20 11:01:20;;;;;;;;;;;12.10;99.90;;;;;;5012671;28;20393;-66
2021/11/20 11:03:57;;;;;;;;;;;12.10;99.90;;;;;;5030593;28;19999;-63
2021/11/20 11:06:46;;;;;;;;;;;12.10;99.90;;;;;;5030089;28;19920;-66
2021/11/20 11:09:19;;;;;;;;;;;12.20;99.90;;;;;;5029464;28;19967;-61
2021/11/20 11:11:53;;;;;;;;;;;12.10;99.90;;;;;;5030021;28;19952;-64
2021/11/20 11:14:28;;;;;;;;;;;12.20;99.90;;;;;;5029652;28;19916;-66
2021/11/20 11:17:22;;;;;;;;;;;12.10;99.90;;;;;;5029702;28;20366;-65
2021/11/20 11:19:53;;;;;;;;;;;12.20;99.90;;;;;;4959272;28;20013;-63
2021/11/20 11:22:37;;;;;;;;;;;12.20;99.90;;;;;;5011852;28;19920;-66
2021/11/20 11:25:23;;;;;;;;;;;12.20;99.90;;;;;;5011804;28;19913;-66
2021/11/20 11:27:53;;;;;;;;;;;12.20;99.90;;;;;;5029078;28;20388;-65
2021/11/20 11:30:30;;;;;;;;;;;12.20;99.90;;;;;;5029396;28;19909;-65
2021/11/20 11:32:56;;;;;;;;;;;12.20;99.90;;;;;;5029508;28;19917;-65
2021/11/20 11:35:24;;;;;;;;;;;12.30;99.90;;;;;;5029820;28;20317;-66
2021/11/20 11:38:16;;;;;;;;;;;12.30;99.90;;;;;;5029500;28;20536;-66
2021/11/20 11:40:45;;;;;;;;;;;12.30;99.90;;;;;;5029068;28;19979;-65
2021/11/20 11:43:13;;;;;;;;;;;12.30;99.90;;;;;;5029443;28;19913;-63
2021/11/20 11:45:57;;;;;;;;;;;12.30;99.90;;;;;;5030069;28;19916;-66
2021/11/20 11:48:41;;;;;;;;;;;12.30;99.90;;;;;;5011707;28;19909;-65
2021/11/20 11:51:22;;;;;;;;;;;12.30;99.90;;;;;;5028397;28;19917;-65
2021/11/20 11:54:06;;;;;;;;;;;12.40;99.60;;;;;;5029308;28;19913;-64
2021/11/20 11:56:34;;;;;;;;;;;12.40;99.40;;;;;;5029112;28;19935;-65
2021/11/20 11:59:08;;;;;;;;;;;12.30;99.30;;;;;;5028442;28;20043;-65
2021/11/20 12:01:40;;;;;;;;;;;12.30;99.20;;;;;;5028941;28;19909;-66
2021/11/20 12:04:17;;;;;;;;;;;12.30;99.10;;;;;;5010884;28;19909;-61
2021/11/20 12:06:59;;;;;;;;;;;12.30;99.10;;;;;;5029236;28;19916;-66
2021/11/20 12:09:27;;;;;;;;;;;12.30;99.30;;;;;;5010405;28;19909;-65
2021/11/20 12:12:04;;;;;;;;;;;12.30;99.20;;;;;;5028788;28;19917;-65
2021/11/20 12:14:34;;;;;;;;;;;12.30;99.40;;;;;;5028766;28;20040;-65
2021/11/20 12:17:09;;;;;;;;;;;12.30;99.20;;;;;;5028698;28;19920;-65
2021/11/20 12:19:49;;;;;;;;;;;12.30;98.90;;;;;;5028875;28;20377;-66
2021/11/20 12:22:30;;;;;;;;;;;12.30;98.90;;;;;;5028483;28;20349;-66
2021/11/20 12:24:58;;;;;;;;;;;12.20;98.80;;;;;;5028642;28;20316;-65
2021/11/20 12:27:30;;;;;;;;;;;12.20;98.80;;;;;;5028325;28;19935;-63
2021/11/20 12:30:05;;;;;;;;;;;12.20;98.90;;;;;;5028035;28;20031;-64
2021/11/20 12:32:30;;;;;;;;;;;12.20;98.90;;;;;;5028734;28;19917;-65
2021/11/20 12:35:11;;;;;;;;;;;12.20;99.00;;;;;;5028339;28;19916;-63
2021/11/20 12:38:10;;;;;;;;;;;12.10;98.80;;;;;;5028320;28;19913;-65
2021/11/20 12:40:54;;;;;;;;;;;12.20;98.70;;;;;;4987506;23;19917;-65
2021/11/20 12:43:44;;;;;;;;;;;12.10;98.60;;;;;;5030149;28;19944;-65
2021/11/20 12:46:10;;;;;;;;;;;12.10;98.90;;;;;;5030021;28;19913;-65
2021/11/20 12:48:49;;;;;;;;;;;12.10;98.60;;;;;;5012716;28;19916;-66
2021/11/20 12:51:17;;;;;;;;;;;12.10;98.70;;;;;;5029413;28;19917;-65
2021/11/20 12:54:01;;;;;;;;;;;12.10;98.60;;;;;;5029513;28;19913;-65
2021/11/20 12:56:32;;;;;;;;;;;12.10;98.50;;;;;;5029858;28;20376;-72
2021/11/20 12:59:00;;;;;;;;;;;12.10;98.20;;;;;;5029274;28;19917;-73
2021/11/20 13:01:47;;;;;;;;;;;12.10;98.30;;;;;;5028981;28;19909;-73
2021/11/20 13:04:16;;;;;;;;;;;12.00;98.20;;;;;;5028987;28;19916;-73
2021/11/20 13:06:47;;;;;;;;;;;12.00;98.10;;;;;;5028107;28;19913;-73
2021/11/20 13:09:18;;;;;;;;;;;12.00;98.30;;;;;;5029033;28;19936;-73
2021/11/20 13:11:49;;;;;;;;;;;12.00;98.10;;;;;;5012477;28;20375;-73
2021/11/20 13:14:17;;;;;;;;;;;11.90;98.20;;;;;;5028542;28;19936;-72
2021/11/20 13:16:51;;;;;;;;;;;11.90;98.10;;;;;;5029467;28;20360;-72
2021/11/20 13:19:22;;;;;;;;;;;11.90;98.00;;;;;;5027963;28;19911;-72
2021/11/20 13:21:48;;;;;;;;;;;11.90;98.00;;;;;;5028697;28;19983;-73
2021/11/20 13:24:18;;;;;;;;;;;11.90;98.00;;;;;;5028743;28;20368;-72
2021/11/20 13:27:03;;;;;;;;;;;11.90;98.00;;;;;;5029122;28;19916;-73
2021/11/20 13:29:28;;;;;;;;;;;11.90;98.10;;;;;;5028715;28;19955;-73
2021/11/20 13:31:54;;;;;;;;;;;11.80;98.20;;;;;;5028897;28;19924;-73
2021/11/20 13:34:19;;;;;;;;;;;11.90;98.30;;;;;;5010970;28;20008;-73
2021/11/20 13:36:45;;;;;;;;;;;11.90;98.00;;;;;;5028799;28;19913;-72
2021/11/20 13:39:10;;;;;;;;;;;11.90;97.90;;;;;;5010728;28;19945;-72
2021/11/20 13:41:37;;;;;;;;;;;11.80;98.00;;;;;;5028328;28;19921;-73
2021/11/20 13:44:04;;;;;;;;;;;11.80;97.90;;;;;;5028705;28;19909;-72
2021/11/20 13:46:29;;;;;;;;;;;11.70;98.00;;;;;;5028687;28;19920;-73
2021/11/20 13:48:55;;;;;;;;;;;11.70;98.20;;;;;;5028692;28;19914;-72
2021/11/20 13:51:24;;;;;;;;;;;11.70;97.90;;;;;;5028135;28;20027;-73
2021/11/20 13:53:54;;;;;;;;;;;11.60;97.90;;;;;;5028766;28;19932;-72
2021/11/20 13:56:20;;;;;;;;;;;11.60;98.10;;;;;;5028241;28;19968;-73
2021/11/20 13:58:54;;;;;;;;;;;11.60;98.20;;;;;;5028292;28;19951;-73
2021/11/20 14:01:19;;;;;;;;;;;11.60;98.00;;;;;;5027607;28;19956;-73
2021/11/20 14:03:52;;;;;;;;;;;11.50;98.20;;;;;;5028648;28;19940;-72
2021/11/20 14:06:18;;;;;;;;;;;11.50;98.30;;;;;;5027983;28;19967;-73
2021/11/20 14:08:43;;;;;;;;;;;11.50;98.30;;;;;;5028710;28;19909;-73
2021/11/20 14:11:13;;;;;;;;;;;11.40;98.40;;;;;;5027974;28;20015;-72
2021/11/20 14:13:39;;;;;;;;;;;11.40;98.50;;;;;;5028464;28;19917;-72
2021/11/20 14:16:06;;;;;;;;;;;11.40;98.50;;;;;;5028497;28;19913;-72
2021/11/20 14:18:41;;;;;;;;;;;11.40;98.60;;;;;;5028315;28;20284;-73
2021/11/20 14:21:07;;;;;;;;;;;11.40;98.70;;;;;;5028019;28;19947;-72
2021/11/20 14:23:33;;;;;;;;;;;11.30;98.70;;;;;;5028108;28;20444;-73
2021/11/20 14:26:01;;;;;;;;;;;11.30;98.50;;;;;;5028203;28;20408;-73
2021/11/20 14:28:35;;;;;;;;;;;11.30;98.60;;;;;;5028170;28;19963;-72
2021/11/20 14:31:06;;;;;;;;;;;11.20;98.70;;;;;;5028863;28;20380;-72